Andes — 5BFM3 — position and weather

sailwx.info

Track history (hours):
 
Tides and Currents Weather Stations Pressure Air Temp Water Temp Dewpoint Dewpoint Depression Visibility Wind Speed Wind Dir Waves Ship Positions

Andes

Last reported at 2014-Nov-09 20:18 UTC. Time now 2014-Nov-24 01:19 UTC.
Position N 29°25' W 094°50'.
Warning: this ship's position is 14 days out of date.

Length 182 m; draft 11.9 m.

Type: Ship. MMSI: 209394000.

Date/timePositionNaut miles runAvg speedWind from/ knotsBaromVisibWave heightAir tempDewpointWater temp
2014-Nov-09 20:18N 29°25' W 094°50'810.9
2014-Nov-09 19:33N 29°32' W 094°54'10 9.6
2014-Nov-09 18:34N 29°41' W 094°59'7 6.8
2014-Nov-09 17:34N 29°46' W 095°04'3 0.1
2014-Nov-07 22:33N 29°44' W 095°07'7 6.5
2014-Nov-07 21:33N 29°42' W 095°00'1211.7
2014-Nov-07 20:33N 29°32' W 094°54'1410.8
2014-Nov-07 19:14N 29°21' W 094°43'0 0.0
2014-Nov-07 13:15N 29°21' W 094°43'41 2.9
2014-Nov-06 23:18N 28°43' W 094°25'  
Track history (hours):
 
Tides and Currents Weather Stations Pressure Air Temp Water Temp Dewpoint Dewpoint Depression Visibility Wind Speed Wind Dir Waves Ship Positions

Andes

Last reported at 2014-Nov-09 20:18 UTC. Time now 2014-Nov-24 01:19 UTC.
Position N 29°25' W 094°50'.
Warning: this ship's position is 14 days out of date.

Length 182 m; draft 11.9 m.

Type: Ship. MMSI: 209394000.

Date/timePositionNaut miles runAvg speedWind from/ knotsBaromVisibWave heightAir tempDewpointWater temp
2014-Nov-09 20:18N 29°25' W 094°50'810.9
2014-Nov-09 19:33N 29°32' W 094°54'10 9.6
2014-Nov-09 18:34N 29°41' W 094°59'7 6.8
2014-Nov-09 17:34N 29°46' W 095°04'3 0.1
2014-Nov-07 22:33N 29°44' W 095°07'7 6.5
2014-Nov-07 21:33N 29°42' W 095°00'1211.7
2014-Nov-07 20:33N 29°32' W 094°54'1410.8
2014-Nov-07 19:14N 29°21' W 094°43'0 0.0
2014-Nov-07 13:15N 29°21' W 094°43'41 2.9
2014-Nov-06 23:18N 28°43' W 094°25'  

Dump ship's entire track history